createdAt,value
2023-05-17T05:13:27.359Z,99995.38
2023-05-17T05:15:31.250Z,99998.03
2023-05-17T05:17:35.268Z,100010.19
2023-05-17T05:19:39.356Z,100004.41
2023-05-17T05:21:45.376Z,99993.97
2023-05-17T05:26:08.365Z,99990.38
2023-05-17T05:28:11.889Z,100014.47
2023-05-17T05:32:39.351Z,99994.66
2023-05-17T05:34:42.615Z,99996.78
2023-05-17T05:36:45.841Z,99997.72
2023-05-17T05:38:49.415Z,99997.41
2023-05-17T05:43:08.861Z,99992.81
2023-05-17T05:47:31.656Z,99993.97
2023-05-17T05:54:08.092Z,100009.56
2023-05-17T05:56:11.292Z,99995.59
2023-05-17T05:58:14.717Z,99998.09
2023-05-17T06:04:53.466Z,100000.41
2023-05-17T06:06:56.932Z,99986.06
2023-05-17T06:09:00.001Z,99987.78
2023-05-17T06:11:03.145Z,99993.53
2023-05-17T06:15:23.660Z,99994.13
2023-05-17T06:20:03.411Z,99990.78
2023-05-17T06:24:25.492Z,99993.56
2023-05-17T06:26:28.959Z,99995.53
2023-05-17T06:28:31.776Z,99990.78
2023-05-17T06:32:51.233Z,99979.69
2023-05-17T06:37:11.293Z,99982.66
2023-05-17T06:39:14.831Z,99979.81
2023-05-17T06:43:37.136Z,99973.13
2023-05-17T06:45:40.775Z,99983.63
2023-05-17T06:47:44.948Z,99990.88
2023-05-17T06:49:48.428Z,99984.09
2023-05-17T06:51:51.907Z,99967.69
2023-05-17T06:53:55.244Z,99975.72
2023-05-17T06:55:58.160Z,99971.81
2023-05-17T06:58:01.023Z,99977.91
2023-05-17T07:02:24.398Z,99990.41
2023-05-17T07:04:27.820Z,99987.22
2023-05-17T07:06:31.602Z,99977.16
2023-05-17T07:08:35.318Z,99982.91
2023-05-17T07:10:38.827Z,99969.63
2023-05-17T07:14:58.685Z,99983.38
2023-05-17T07:17:01.863Z,99978.63
2023-05-17T07:19:09.497Z,99975.81
2023-05-17T07:25:48.153Z,99975.84
2023-05-17T07:30:10.051Z,99985.19
2023-05-17T07:32:19.234Z,99963.94
2023-05-17T07:34:23.112Z,99983.25
2023-05-17T07:38:47.991Z,99958.50
2023-05-17T07:43:10.177Z,99973.34
2023-05-17T07:45:13.729Z,99978.97
2023-05-17T07:47:19.658Z,99972.19
2023-05-17T07:49:31.316Z,99949.31
2023-05-17T07:51:37.083Z,99971.38
2023-05-17T07:53:40.367Z,99961.78
2023-05-17T07:55:44.009Z,99959.41
2023-05-17T07:57:51.163Z,99978.63
2023-05-17T08:06:53.419Z,99946.19
2023-05-17T08:11:13.859Z,99962.25
2023-05-17T08:13:18.058Z,99947.78
2023-05-17T08:27:12.255Z,99951.75
2023-05-17T08:29:18.025Z,99933.69
2023-05-17T08:31:21.692Z,99934.88
2023-05-17T08:35:45.744Z,99932.88
2023-05-17T08:47:08.903Z,99940.72
2023-05-17T08:49:18.042Z,99923.84
2023-05-17T09:05:39.020Z,99925.41
2023-05-17T09:19:19.365Z,99919.66
2023-05-17T09:21:25.108Z,99910.41
2023-05-17T09:23:30.599Z,99914.47
2023-05-17T09:27:55.365Z,99911.66
2023-05-17T09:30:00.608Z,99904.78
2023-05-17T09:34:34.956Z,99889.78
2023-05-17T09:43:40.716Z,99894.31
2023-05-17T09:45:48.397Z,99901.56
2023-05-17T09:47:56.936Z,99900.78
2023-05-17T09:50:03.916Z,99897.56
2023-05-17T09:52:14.141Z,99895.16
2023-05-17T09:54:19.267Z,99894.72
2023-05-17T09:56:27.910Z,99895.47
2023-05-17T09:58:33.139Z,99891.84
2023-05-17T10:00:38.546Z,99892.97
2023-05-17T10:02:56.704Z,99892.84
2023-05-17T10:07:25.196Z,99893.50
2023-05-17T10:09:34.818Z,99889.84
2023-05-17T10:11:48.599Z,99883.66
2023-05-17T10:16:49.689Z,99876.88
2023-05-17T10:18:53.376Z,99878.75
2023-05-17T10:20:57.495Z,99877.03
2023-05-17T10:23:03.924Z,99889.75
2023-05-17T10:25:12.134Z,99884.88
2023-05-17T10:27:16.514Z,99887.19
2023-05-17T10:29:27.695Z,99880.97
2023-05-17T10:31:37.346Z,99884.34
2023-05-17T10:33:44.180Z,99879.78
2023-05-17T10:35:50.489Z,99880.53
2023-05-17T10:37:54.297Z,99875.31
2023-05-17T10:39:58.064Z,99881.38
2023-05-17T10:42:17.819Z,99871.50
2023-05-17T10:44:21.268Z,99870.91
2023-05-17T10:48:42.931Z,99867.31
2023-05-17T10:51:01.151Z,99874.78
2023-05-17T10:53:10.595Z,99866.44
2023-05-17T10:55:26.641Z,99857.41
2023-05-17T11:00:24.909Z,99870.78
2023-05-17T11:02:29.171Z,99867.16
2023-05-17T11:04:37.094Z,99863.28
2023-05-17T11:06:41.279Z,99860.41
2023-05-17T11:08:47.791Z,99854.56
2023-05-17T11:11:13.038Z,99863.53
2023-05-17T11:13:25.756Z,99856.22
2023-05-17T11:15:28.743Z,99859.50
2023-05-17T11:17:37.216Z,99857.03
2023-05-17T11:19:40.238Z,99853.09
2023-05-17T11:21:47.746Z,99853.19
2023-05-17T11:23:56.838Z,99854.09
2023-05-17T11:26:32.933Z,99842.69
2023-05-17T11:28:36.561Z,99848.50
2023-05-17T11:30:43.752Z,99843.13
2023-05-17T11:32:59.021Z,99842.75
2023-05-17T11:35:02.408Z,99843.16
2023-05-17T11:37:12.302Z,99839.91
2023-05-17T11:39:19.325Z,99839.69
2023-05-17T11:41:26.809Z,99836.59
2023-05-17T11:43:31.278Z,99827.16
2023-05-17T11:45:43.650Z,99828.09
2023-05-17T11:47:48.861Z,99829.41
2023-05-17T11:49:54.935Z,99831.88
2023-05-17T11:51:59.574Z,99825.94
2023-05-17T11:54:04.613Z,99833.63
2023-05-17T11:56:08.864Z,99827.94
2023-05-17T11:58:13.368Z,99822.81
2023-05-17T12:00:17.823Z,99818.53
2023-05-17T12:02:31.236Z,99822.19
2023-05-17T12:04:38.481Z,99820.41
2023-05-17T12:13:50.687Z,99819.91
2023-05-17T12:18:40.288Z,99807.59
2023-05-17T12:23:53.145Z,99808.69
2023-05-17T12:26:31.081Z,99807.53
2023-05-17T12:42:27.921Z,99796.66
2023-05-17T12:44:35.434Z,99797.34
2023-05-17T12:48:56.053Z,99799.19
2023-05-17T12:51:10.550Z,99798.59
2023-05-17T12:53:18.922Z,99795.91
2023-05-17T12:55:21.642Z,99791.38
2023-05-17T12:57:24.921Z,99790.41
2023-05-17T13:01:46.584Z,99787.09
2023-05-17T13:03:52.746Z,99800.91
2023-05-17T13:06:04.432Z,99799.31
2023-05-17T13:08:20.888Z,99788.22
2023-05-17T13:10:28.839Z,99797.69
2023-05-17T13:14:52.324Z,99795.53
2023-05-17T13:16:59.836Z,99790.63
2023-05-17T13:19:02.656Z,99792.78
2023-05-17T13:21:05.433Z,99800.59
2023-05-17T13:23:08.322Z,99788.81
2023-05-17T13:25:12.770Z,99798.34
2023-05-17T13:27:18.452Z,99792.88
2023-05-17T13:29:35.272Z,99786.31
2023-05-17T13:31:43.270Z,99793.44
2023-05-17T13:33:46.163Z,99794.56
2023-05-17T13:35:49.043Z,99788.81
2023-05-17T13:37:51.936Z,99786.97
2023-05-17T13:39:56.590Z,99788.00
2023-05-17T13:41:59.837Z,99784.84
2023-05-17T13:46:21.796Z,99787.75
2023-05-17T13:50:42.316Z,99786.91
2023-05-17T13:52:49.614Z,99787.53
2023-05-17T13:54:53.270Z,99788.88
2023-05-17T13:57:08.677Z,99782.72
2023-05-17T13:59:14.582Z,99781.22
2023-05-17T14:01:19.404Z,99771.22
2023-05-17T14:03:22.646Z,99777.34
2023-05-17T14:05:28.284Z,99776.03
2023-05-17T14:07:31.083Z,99781.72
2023-05-17T14:09:48.411Z,99772.03
2023-05-17T14:11:52.655Z,99774.66
2023-05-17T14:13:56.248Z,99770.25
2023-05-17T14:15:59.122Z,99770.47
2023-05-17T14:18:01.915Z,99770.97
2023-05-17T14:20:05.302Z,99771.97
2023-05-17T14:22:09.380Z,99776.97
2023-05-17T14:24:16.194Z,99768.47
2023-05-17T14:26:19.608Z,99761.44
2023-05-17T14:28:23.502Z,99774.22
2023-05-17T14:30:26.556Z,99748.25
2023-05-17T14:32:30.698Z,99779.44
2023-05-17T14:34:33.729Z,99756.84
2023-05-17T14:36:38.460Z,99774.78
2023-05-17T14:38:41.332Z,99778.31
2023-05-17T14:40:44.196Z,99778.22
2023-05-17T14:42:47.423Z,99779.19
2023-05-17T14:44:50.843Z,99780.78
2023-05-17T14:46:54.845Z,99778.19
2023-05-17T14:48:57.655Z,99782.81
2023-05-17T14:51:00.452Z,99780.03
2023-05-17T14:53:03.364Z,99777.16
2023-05-17T14:55:06.614Z,99772.47
2023-05-17T14:57:10.496Z,99776.16
2023-05-17T14:59:13.220Z,99774.81
2023-05-17T15:01:16.285Z,99776.75
2023-05-17T15:03:21.795Z,99772.13
2023-05-17T15:05:34.770Z,99775.94
2023-05-17T15:07:37.957Z,99777.44
2023-05-17T15:09:41.904Z,99770.22
2023-05-17T15:11:45.800Z,99776.78
2023-05-17T15:13:48.984Z,99774.88
2023-05-17T15:15:53.165Z,99767.41
2023-05-17T15:17:56.227Z,99762.19
2023-05-17T15:20:00.305Z,99770.56
2023-05-17T15:22:12.631Z,99769.78
2023-05-17T15:24:17.205Z,99766.56
2023-05-17T15:28:39.222Z,99768.00
2023-05-17T15:30:44.581Z,99765.06
2023-05-17T15:32:48.555Z,99759.78
2023-05-17T15:37:10.018Z,99755.75
2023-05-17T15:59:47.317Z,99747.44
2023-05-17T16:08:42.674Z,99751.44
2023-05-17T16:10:45.338Z,99754.69
2023-05-17T16:15:07.849Z,99756.78
2023-05-17T16:17:11.619Z,99760.47
2023-05-17T16:21:33.081Z,99756.91
2023-05-17T16:23:36.314Z,99754.16
2023-05-17T16:25:39.380Z,99756.59
2023-05-17T16:27:48.817Z,99753.81
2023-05-17T16:29:52.732Z,99755.00
2023-05-17T16:32:07.791Z,99759.84
2023-05-17T16:34:12.373Z,99760.66
2023-05-17T16:36:15.230Z,99756.66
2023-05-17T16:38:18.326Z,99755.09
2023-05-17T16:40:22.251Z,99761.91
2023-05-17T16:42:26.690Z,99761.53
2023-05-17T16:44:30.169Z,99761.94
2023-05-17T16:46:34.461Z,99755.50
2023-05-17T16:48:37.722Z,99759.53
2023-05-17T16:50:44.409Z,99760.69
2023-05-17T16:52:47.442Z,99763.13
2023-05-17T16:54:51.481Z,99767.13
2023-05-17T16:57:04.364Z,99761.50
2023-05-17T17:06:17.027Z,99764.66
2023-05-17T17:08:19.716Z,99765.88
2023-05-17T17:10:22.558Z,99762.63
2023-05-17T17:12:26.304Z,99769.84
2023-05-17T17:14:29.531Z,99771.84
2023-05-17T17:16:33.688Z,99773.41
2023-05-17T17:18:36.695Z,99765.41
2023-05-17T17:20:39.474Z,99765.38
2023-05-17T17:22:42.216Z,99764.19
2023-05-17T17:24:45.053Z,99763.72
2023-05-17T17:26:50.096Z,99766.94
2023-05-17T17:28:52.852Z,99762.09
2023-05-17T17:30:55.588Z,99758.50
2023-05-17T17:32:58.387Z,99761.31
2023-05-17T17:35:01.384Z,99763.69
2023-05-17T17:37:07.040Z,99761.25
2023-05-17T17:39:10.538Z,99764.44
2023-05-17T17:41:13.272Z,99767.22
2023-05-17T17:43:16.282Z,99764.41
2023-05-17T17:45:19.013Z,99757.97
2023-05-17T17:47:21.893Z,99758.38
2023-05-17T17:49:24.717Z,99761.13
2023-05-17T17:51:27.447Z,99752.69
2023-05-17T17:53:30.344Z,99759.47
2023-05-17T17:55:33.139Z,99762.63
2023-05-17T17:57:35.941Z,99760.22
2023-05-17T17:59:38.607Z,99767.34
2023-05-17T18:01:41.376Z,99759.69
2023-05-17T18:03:44.142Z,99759.63
2023-05-17T18:05:46.817Z,99761.22
2023-05-17T18:07:49.569Z,99762.78
2023-05-17T18:09:52.630Z,99760.75
2023-05-17T18:11:56.858Z,99752.31
2023-05-17T18:13:59.692Z,99758.31
2023-05-17T18:16:02.803Z,99754.31
2023-05-17T18:18:05.990Z,99750.66
2023-05-17T18:20:09.151Z,99757.44
2023-05-17T18:22:11.943Z,99747.81
2023-05-17T18:24:14.707Z,99749.81
2023-05-17T18:26:17.502Z,99756.97
2023-05-17T18:30:42.875Z,99743.34
2023-05-17T18:32:45.895Z,99745.28
2023-05-17T18:34:49.119Z,99754.03
2023-05-17T18:36:51.838Z,99752.03
2023-05-17T18:38:58.854Z,99754.41
2023-05-17T18:41:01.564Z,99751.97
2023-05-17T18:43:04.581Z,99752.28
2023-05-17T18:45:08.060Z,99758.19
2023-05-17T18:47:12.200Z,99754.94
2023-05-17T18:49:15.054Z,99753.31
2023-05-17T18:51:17.931Z,99759.59
2023-05-17T18:53:20.677Z,99754.38
2023-05-17T18:55:23.914Z,99759.94
2023-05-17T18:57:26.617Z,99764.31
2023-05-17T18:59:29.399Z,99760.72
2023-05-17T19:01:32.447Z,99765.88
2023-05-17T19:03:35.588Z,99759.47
2023-05-17T19:05:38.434Z,99754.28
2023-05-17T19:07:41.300Z,99762.66
2023-05-17T19:09:44.118Z,99753.06
2023-05-17T19:11:46.891Z,99760.59
2023-05-17T19:13:49.755Z,99759.38
2023-05-17T19:15:53.014Z,99768.09
2023-05-17T19:17:55.973Z,99761.31
2023-05-17T19:19:58.837Z,99760.88
2023-05-17T19:22:02.560Z,99760.06
2023-05-17T19:24:05.885Z,99752.06
2023-05-17T19:26:08.892Z,99759.63
2023-05-17T19:28:11.591Z,99764.34
2023-05-17T19:30:14.434Z,99764.69
2023-05-17T19:32:17.227Z,99764.59
2023-05-17T19:34:19.926Z,99763.69
2023-05-17T19:36:22.648Z,99767.25
2023-05-17T19:38:25.421Z,99767.22
2023-05-17T19:40:28.520Z,99767.13
2023-05-17T19:42:31.618Z,99767.81
2023-05-17T19:44:34.447Z,99764.56
2023-05-17T19:46:37.648Z,99763.66
2023-05-17T19:48:41.528Z,99766.75
2023-05-17T19:50:44.471Z,99770.28
2023-05-17T19:52:47.622Z,99767.88
2023-05-17T19:54:50.475Z,99775.44
2023-05-17T19:56:53.655Z,99767.06
2023-05-17T19:58:56.436Z,99767.50
2023-05-17T20:00:59.286Z,99773.03
2023-05-17T20:03:02.205Z,99770.19
2023-05-17T20:05:06.238Z,99775.41
2023-05-17T20:07:09.360Z,99767.41
2023-05-17T20:09:12.152Z,99772.53
2023-05-17T20:11:14.977Z,99763.03
2023-05-17T20:13:19.765Z,99769.72
2023-05-17T20:15:23.095Z,99766.88
2023-05-17T20:17:25.959Z,99766.38
2023-05-17T20:19:31.027Z,99760.81
2023-05-17T20:21:33.939Z,99772.31
2023-05-17T20:23:36.655Z,99764.72
2023-05-17T20:25:41.260Z,99765.09
2023-05-17T20:27:44.249Z,99765.88
2023-05-17T20:29:46.978Z,99766.28
2023-05-17T20:31:49.884Z,99769.34
2023-05-17T20:33:53.247Z,99763.31
2023-05-17T20:35:56.232Z,99764.84
2023-05-17T20:37:58.936Z,99758.81
2023-05-17T20:40:01.884Z,99765.63
2023-05-17T20:42:07.955Z,99753.66
2023-05-17T20:44:12.786Z,99766.41
2023-05-17T20:46:17.950Z,99763.56
2023-05-17T20:48:20.659Z,99765.22
2023-05-17T20:50:23.425Z,99764.06
2023-05-17T20:54:31.834Z,99758.84
2023-05-17T20:56:37.088Z,99765.22
2023-05-17T20:58:39.948Z,99754.41
2023-05-17T21:00:43.034Z,99764.66
2023-05-17T21:02:45.917Z,99763.00
2023-05-17T21:04:48.846Z,99759.72
2023-05-17T21:06:52.589Z,99752.47
2023-05-17T21:08:55.849Z,99748.00
2023-05-17T21:10:58.935Z,99741.97
2023-05-17T21:13:01.775Z,99751.91
2023-05-17T21:15:19.610Z,99744.66
2023-05-17T21:17:22.432Z,99752.53
2023-05-17T21:19:25.398Z,99744.53
2023-05-17T21:21:28.232Z,99742.56
2023-05-17T21:23:31.104Z,99741.31
2023-05-17T21:25:35.210Z,99742.88
2023-05-17T21:27:38.022Z,99739.59
2023-05-17T21:29:40.755Z,99743.84
2023-05-17T21:31:43.570Z,99745.25
2023-05-17T21:33:46.303Z,99746.22
2023-05-17T21:35:49.090Z,99757.84
2023-05-17T21:37:51.883Z,99750.31
2023-05-17T21:39:54.674Z,99752.75
2023-05-17T21:41:57.431Z,99758.00
2023-05-17T21:44:00.350Z,99750.94
2023-05-17T21:46:03.406Z,99759.06
2023-05-17T21:48:06.345Z,99758.50
2023-05-17T21:50:10.212Z,99747.97
2023-05-17T21:52:13.003Z,99746.63
2023-05-17T21:54:15.841Z,99745.66
2023-05-17T21:56:18.640Z,99750.84
2023-05-17T21:58:21.524Z,99749.31
2023-05-17T22:00:27.911Z,99738.66
2023-05-17T22:02:30.983Z,99742.97
2023-05-17T22:04:33.875Z,99734.19
2023-05-17T22:06:36.810Z,99742.53
2023-05-17T22:08:42.481Z,99741.28
2023-05-17T22:10:45.350Z,99736.53
2023-05-17T22:12:50.447Z,99737.31
2023-05-17T22:14:55.970Z,99735.72
2023-05-17T22:16:59.856Z,99740.44
2023-05-17T22:19:04.042Z,99739.56
2023-05-17T22:21:09.103Z,99735.56
2023-05-17T22:23:12.134Z,99733.47
2023-05-17T22:25:15.814Z,99729.81
2023-05-17T22:27:20.713Z,99726.22
2023-05-17T22:29:23.417Z,99732.94
2023-05-17T22:31:26.471Z,99721.13
2023-05-17T22:33:29.874Z,99720.78
2023-05-17T22:35:32.796Z,99722.91
2023-05-17T22:37:36.698Z,99723.44
2023-05-17T22:39:41.216Z,99727.13
2023-05-17T22:41:44.495Z,99725.66
2023-05-17T22:43:47.203Z,99719.03
2023-05-17T22:45:50.425Z,99721.53
2023-05-17T22:47:54.550Z,99717.31
2023-05-17T22:49:57.840Z,99721.78
2023-05-17T22:52:08.036Z,99727.03
2023-05-17T22:54:11.272Z,99719.97
2023-05-17T22:56:14.070Z,99730.34
2023-05-17T22:58:17.064Z,99728.38
2023-05-17T23:00:20.703Z,99729.19
2023-05-17T23:02:23.563Z,99723.19
2023-05-17T23:04:26.437Z,99726.34
2023-05-17T23:06:32.310Z,99727.88
2023-05-17T23:08:35.030Z,99727.41
2023-05-17T23:10:38.109Z,99725.34
2023-05-17T23:12:40.838Z,99735.31
2023-05-17T23:14:43.695Z,99724.91
2023-05-17T23:16:46.921Z,99727.25
2023-05-17T23:18:49.847Z,99729.94
2023-05-17T23:20:52.672Z,99720.28
2023-05-17T23:22:55.626Z,99729.88
2023-05-17T23:24:58.860Z,99722.69
2023-05-17T23:27:01.550Z,99720.38
2023-05-17T23:29:05.640Z,99730.28
2023-05-17T23:31:08.632Z,99727.97
2023-05-17T23:33:11.824Z,99723.66
2023-05-17T23:35:14.601Z,99722.84
2023-05-17T23:37:17.479Z,99728.41
2023-05-17T23:39:20.207Z,99730.03
2023-05-17T23:41:25.480Z,99726.00
2023-05-17T23:43:28.296Z,99738.72
2023-05-17T23:45:31.289Z,99731.19
2023-05-17T23:47:34.456Z,99736.75
2023-05-17T23:49:37.503Z,99733.63
2023-05-17T23:51:40.445Z,99731.63
2023-05-17T23:53:43.423Z,99734.41
2023-05-17T23:55:46.847Z,99727.69
2023-05-17T23:57:49.618Z,99733.63
2023-05-17T23:59:52.448Z,99732.88
